Wind From: 13-12-2017 10:08 Until: 14-12-2017 06:00 warning for: Wind Level: Yellow info button

Although rather usual in this region, locally or potentially dangerous phenomena are expected. (such as local winds, summer thunderstorms, rising streams or high waves) Be aware and pay attention to the latest weather updates, especially if you carry out activities exposed to weather or close to a stream or shoreline. 


Meteo18 Weather Cam more information Meteo18 Weather Cam


Thunder radar more information blitzortung!


Rain radar more information rain snow radar


Visit our other weather sites:

Template documentation
and downloads

And another site



Weather Underground History page Text

Daily Summary for August 7, 2017 Units:  Both    English   Metric
« Previous Day
Next Day »
Daily Weekly Monthly Yearly Custom
  High: Low: Average:
Temperature: 81.3 °F /  27.4 °C 53.2 °F /  11.8 °C 68 °F /  20 °C
Dew Point: 58.3 °F /  14.6 °C 46.4 °F /  8.0 °C 49.8 °F /  9.9 °C
Humidity: 78 % 32 % 55 %
Wind Speed: 9 mph /  14.5 km/h - 2.2 mph /  3.6 km/h
Wind Gust: 14 mph /  22.5 km/h - -
Wind:- - SE
Pressure: 30.2 in /  1022.2 hPa 29.9 in /  1012.4 hPa -
Precipitation: 0 in /  0.0 mm    
Historical Graphs
 
 
Tabular Data for August 7, 2017
Time Temperature Dew Point Pressure Wind Wind Speed Wind Gust Humidity Rainfall Rate (Hourly)
00:02 59.5 °F /  15.3 °C 47.8 °F /  8.8 °C 30.2 in /  1022.2 hPa NNE 1 mph /  1.6 km/h 2 mph /  3.2 km/h 65 % 0 in /  0.0 mm
00:07 59.5 °F /  15.3 °C 47.3 °F /  8.5 °C 30.2 in /  1022.2 hPa North 1 mph /  1.6 km/h 2 mph /  3.2 km/h 64 % 0 in /  0.0 mm
00:17 59.5 °F /  15.3 °C 47.3 °F /  8.5 °C 30.2 in /  1022.2 hPa Calm   2 mph /  3.2 km/h 64 % 0 in /  0.0 mm
00:22 59.4 °F /  15.2 °C 47.1 °F /  8.4 °C 30.2 in /  1022.2 hPa Calm   1 mph /  1.6 km/h 64 % 0 in /  0.0 mm
00:27 59.2 °F /  15.1 °C 46.9 °F /  8.3 °C 30.2 in /  1022.2 hPa Calm     64 % 0 in /  0.0 mm
00:32 59.5 °F /  15.3 °C 46.9 °F /  8.3 °C 30.2 in /  1022.2 hPa Calm   2 mph /  3.2 km/h 63 % 0 in /  0.0 mm
00:37 59.5 °F /  15.3 °C 46.9 °F /  8.3 °C 30.2 in /  1022.2 hPa WNW 1 mph /  1.6 km/h 2 mph /  3.2 km/h 63 % 0 in /  0.0 mm
00:42 58.8 °F /  14.9 °C 46.6 °F /  8.1 °C 30.2 in /  1022.2 hPa NW 1 mph /  1.6 km/h 2 mph /  3.2 km/h 64 % 0 in /  0.0 mm
00:47 58.6 °F /  14.8 °C 46.9 °F /  8.3 °C 30.2 in /  1022.2 hPa WNW 1 mph /  1.6 km/h 2 mph /  3.2 km/h 65 % 0 in /  0.0 mm
00:52 58.3 °F /  14.6 °C 46.9 °F /  8.3 °C 30.2 in /  1022.2 hPa WNW 1 mph /  1.6 km/h 2 mph /  3.2 km/h 66 % 0 in /  0.0 mm
00:57 58.5 °F /  14.7 °C 46.8 °F /  8.2 °C 30.2 in /  1022.2 hPa Calm   2 mph /  3.2 km/h 65 % 0 in /  0.0 mm
01:02 58.5 °F /  14.7 °C 46.8 °F /  8.2 °C 30.2 in /  1022.2 hPa NNW 1 mph /  1.6 km/h 1 mph /  1.6 km/h 65 % 0 in /  0.0 mm
01:07 58.5 °F /  14.7 °C 46.8 °F /  8.2 °C 30.2 in /  1022.2 hPa Calm   1 mph /  1.6 km/h 65 % 0 in /  0.0 mm
01:12 58.5 °F /  14.7 °C 46.8 °F /  8.2 °C 30.2 in /  1022.2 hPa Calm   1 mph /  1.6 km/h 65 % 0 in /  0.0 mm
01:17 58.3 °F /  14.6 °C 46.9 °F /  8.3 °C 30.2 in /  1022.2 hPa Calm   1 mph /  1.6 km/h 66 % 0 in /  0.0 mm
01:22 57.9 °F /  14.4 °C 46.6 °F /  8.1 °C 30.2 in /  1022.2 hPa Calm   2 mph /  3.2 km/h 66 % 0 in /  0.0 mm
01:27 57.6 °F /  14.2 °C 46.8 °F /  8.2 °C 30.2 in /  1021.9 hPa Calm   2 mph /  3.2 km/h 67 % 0 in /  0.0 mm
01:32 57.4 °F /  14.1 °C 46.9 °F /  8.3 °C 30.2 in /  1021.9 hPa Calm   1 mph /  1.6 km/h 68 % 0 in /  0.0 mm
01:37 57.4 °F /  14.1 °C 46.9 °F /  8.3 °C 30.2 in /  1021.9 hPa North 1 mph /  1.6 km/h 2 mph /  3.2 km/h 68 % 0 in /  0.0 mm
01:42 57.4 °F /  14.1 °C 46.9 °F /  8.3 °C 30.2 in /  1021.9 hPa NW 1 mph /  1.6 km/h 2 mph /  3.2 km/h 68 % 0 in /  0.0 mm
01:47 57 °F /  13.9 °C 46.6 °F /  8.1 °C 30.2 in /  1021.9 hPa NW 1 mph /  1.6 km/h 1 mph /  1.6 km/h 68 % 0 in /  0.0 mm
01:52 57 °F /  13.9 °C 46.9 °F /  8.3 °C 30.2 in /  1021.9 hPa Calm   1 mph /  1.6 km/h 69 % 0 in /  0.0 mm
02:02 57.6 °F /  14.2 °C 47.1 °F /  8.4 °C 30.2 in /  1021.9 hPa Calm   1 mph /  1.6 km/h 68 % 0 in /  0.0 mm
02:07 57.4 °F /  14.1 °C 46.9 °F /  8.3 °C 30.2 in /  1021.9 hPa NW 1 mph /  1.6 km/h 1 mph /  1.6 km/h 68 % 0 in /  0.0 mm
02:12 57 °F /  13.9 °C 46.9 °F /  8.3 °C 30.2 in /  1021.9 hPa Calm   1 mph /  1.6 km/h 69 % 0 in /  0.0 mm
02:17 57.2 °F /  14.0 °C 47.1 °F /  8.4 °C 30.2 in /  1021.6 hPa NW 1 mph /  1.6 km/h 1 mph /  1.6 km/h 69 % 0 in /  0.0 mm
02:22 57.6 °F /  14.2 °C 47.1 °F /  8.4 °C 30.2 in /  1021.6 hPa Calm   1 mph /  1.6 km/h 68 % 0 in /  0.0 mm
02:32 57.6 °F /  14.2 °C 47.1 °F /  8.4 °C 30.2 in /  1021.6 hPa NW 1 mph /  1.6 km/h 1 mph /  1.6 km/h 68 % 0 in /  0.0 mm
02:37 57.4 °F /  14.1 °C 47.3 °F /  8.5 °C 30.2 in /  1021.6 hPa NNW 1 mph /  1.6 km/h 2 mph /  3.2 km/h 69 % 0 in /  0.0 mm
02:42 57.2 °F /  14.0 °C 47.1 °F /  8.4 °C 30.2 in /  1021.6 hPa NNW 1 mph /  1.6 km/h 2 mph /  3.2 km/h 69 % 0 in /  0.0 mm
02:47 56.8 °F /  13.8 °C 47.1 °F /  8.4 °C 30.2 in /  1021.6 hPa NNW 1 mph /  1.6 km/h 2 mph /  3.2 km/h 70 % 0 in /  0.0 mm
02:52 56.8 °F /  13.8 °C 47.1 °F /  8.4 °C 30.2 in /  1021.6 hPa NNW 1 mph /  1.6 km/h 2 mph /  3.2 km/h 70 % 0 in /  0.0 mm
02:57 57 °F /  13.9 °C 47.3 °F /  8.5 °C 30.2 in /  1021.6 hPa NNW 1 mph /  1.6 km/h 2 mph /  3.2 km/h 70 % 0 in /  0.0 mm
03:02 57 °F /  13.9 °C 47.3 °F /  8.5 °C 30.2 in /  1021.6 hPa NNW 1 mph /  1.6 km/h 2 mph /  3.2 km/h 70 % 0 in /  0.0 mm
03:07 57 °F /  13.9 °C 47.3 °F /  8.5 °C 30.2 in /  1021.6 hPa NNW 1 mph /  1.6 km/h 2 mph /  3.2 km/h 70 % 0 in /  0.0 mm
03:12 56.8 °F /  13.8 °C 47.1 °F /  8.4 °C 30.2 in /  1021.6 hPa Calm   2 mph /  3.2 km/h 70 % 0 in /  0.0 mm
03:17 56.7 °F /  13.7 °C 47.3 °F /  8.5 °C 30.2 in /  1021.2 hPa Calm   2 mph /  3.2 km/h 71 % 0 in /  0.0 mm
03:22 56.5 °F /  13.6 °C 47.1 °F /  8.4 °C 30.2 in /  1021.2 hPa NNW 1 mph /  1.6 km/h 2 mph /  3.2 km/h 71 % 0 in /  0.0 mm
03:27 56.5 °F /  13.6 °C 47.5 °F /  8.6 °C 30.2 in /  1021.2 hPa NNW 1 mph /  1.6 km/h 2 mph /  3.2 km/h 72 % 0 in /  0.0 mm
03:32 56.5 °F /  13.6 °C 47.5 °F /  8.6 °C 30.2 in /  1021.2 hPa NNW 1 mph /  1.6 km/h 2 mph /  3.2 km/h 72 % 0 in /  0.0 mm
03:37 56.5 °F /  13.6 °C 47.1 °F /  8.4 °C 30.2 in /  1021.2 hPa NW 1 mph /  1.6 km/h 3 mph /  4.8 km/h 71 % 0 in /  0.0 mm
03:42 56.5 °F /  13.6 °C 47.1 °F /  8.4 °C 30.2 in /  1021.2 hPa NNW 2 mph /  3.2 km/h 4 mph /  6.4 km/h 71 % 0 in /  0.0 mm
03:52 56.7 °F /  13.7 °C 47.3 °F /  8.5 °C 30.2 in /  1020.9 hPa NW 1 mph /  1.6 km/h 4 mph /  6.4 km/h 71 % 0 in /  0.0 mm
03:57 56.5 °F /  13.6 °C 47.1 °F /  8.4 °C 30.2 in /  1020.9 hPa Calm   3 mph /  4.8 km/h 71 % 0 in /  0.0 mm
04:02 56.5 °F /  13.6 °C 47.5 °F /  8.6 °C 30.2 in /  1020.9 hPa Calm   3 mph /  4.8 km/h 72 % 0 in /  0.0 mm
04:07 56.5 °F /  13.6 °C 47.1 °F /  8.4 °C 30.2 in /  1020.9 hPa Calm   2 mph /  3.2 km/h 71 % 0 in /  0.0 mm
04:12 56.5 °F /  13.6 °C 47.1 °F /  8.4 °C 30.2 in /  1020.9 hPa NNW 2 mph /  3.2 km/h 2 mph /  3.2 km/h 71 % 0 in /  0.0 mm
04:17 56.5 °F /  13.6 °C 47.1 °F /  8.4 °C 30.2 in /  1020.9 hPa NNW 1 mph /  1.6 km/h 3 mph /  4.8 km/h 71 % 0 in /  0.0 mm
04:22 56.5 °F /  13.6 °C 47.1 °F /  8.4 °C 30.1 in /  1020.5 hPa NNW 1 mph /  1.6 km/h 3 mph /  4.8 km/h 71 % 0 in /  0.0 mm
04:27 56.1 °F /  13.4 °C 46.8 °F /  8.2 °C 30.1 in /  1020.5 hPa NNW 1 mph /  1.6 km/h 3 mph /  4.8 km/h 71 % 0 in /  0.0 mm
04:32 56.1 °F /  13.4 °C 47.3 °F /  8.5 °C 30.1 in /  1020.5 hPa NNW 1 mph /  1.6 km/h 3 mph /  4.8 km/h 72 % 0 in /  0.0 mm
04:37 56.1 °F /  13.4 °C 47.3 °F /  8.5 °C 30.1 in /  1020.5 hPa Calm   3 mph /  4.8 km/h 72 % 0 in /  0.0 mm
04:42 56.1 °F /  13.4 °C 46.8 °F /  8.2 °C 30.1 in /  1020.5 hPa NNW 1 mph /  1.6 km/h 3 mph /  4.8 km/h 71 % 0 in /  0.0 mm
04:47 56.1 °F /  13.4 °C 47.3 °F /  8.5 °C 30.1 in /  1020.5 hPa North 1 mph /  1.6 km/h 2 mph /  3.2 km/h 72 % 0 in /  0.0 mm
04:52 56.3 °F /  13.5 °C 46.9 °F /  8.3 °C 30.1 in /  1020.5 hPa North 1 mph /  1.6 km/h 2 mph /  3.2 km/h 71 % 0 in /  0.0 mm
04:57 55.9 °F /  13.3 °C 47.1 °F /  8.4 °C 30.1 in /  1020.5 hPa North 1 mph /  1.6 km/h 2 mph /  3.2 km/h 72 % 0 in /  0.0 mm
05:02 55.6 °F /  13.1 °C 46.8 °F /  8.2 °C 30.1 in /  1020.5 hPa North 1 mph /  1.6 km/h 2 mph /  3.2 km/h 72 % 0 in /  0.0 mm
05:07 55.6 °F /  13.1 °C 47.1 °F /  8.4 °C 30.1 in /  1020.5 hPa NNW 1 mph /  1.6 km/h 2 mph /  3.2 km/h 73 % 0 in /  0.0 mm
05:17 55.8 °F /  13.2 °C 47.3 °F /  8.5 °C 30.1 in /  1020.2 hPa NW 1 mph /  1.6 km/h 2 mph /  3.2 km/h 73 % 0 in /  0.0 mm
05:22 55.8 °F /  13.2 °C 47.3 °F /  8.5 °C 30.1 in /  1020.2 hPa Calm   3 mph /  4.8 km/h 73 % 0 in /  0.0 mm
05:27 55.8 °F /  13.2 °C 46.9 °F /  8.3 °C 30.1 in /  1020.2 hPa Calm   3 mph /  4.8 km/h 72 % 0 in /  0.0 mm
05:32 55.8 °F /  13.2 °C 46.9 °F /  8.3 °C 30.1 in /  1020.2 hPa NNW 1 mph /  1.6 km/h 3 mph /  4.8 km/h 72 % 0 in /  0.0 mm
05:37 55.8 °F /  13.2 °C 47.3 °F /  8.5 °C 30.1 in /  1020.2 hPa NNW 1 mph /  1.6 km/h 2 mph /  3.2 km/h 73 % 0 in /  0.0 mm
05:42 55.6 °F /  13.1 °C 47.1 °F /  8.4 °C 30.1 in /  1020.2 hPa NNW 1 mph /  1.6 km/h 2 mph /  3.2 km/h 73 % 0 in /  0.0 mm
05:47 55.6 °F /  13.1 °C 47.1 °F /  8.4 °C 30.1 in /  1020.2 hPa NNW 1 mph /  1.6 km/h 2 mph /  3.2 km/h 73 % 0 in /  0.0 mm
05:52 55.8 °F /  13.2 °C 47.3 °F /  8.5 °C 30.1 in /  1020.2 hPa Calm   3 mph /  4.8 km/h 73 % 0 in /  0.0 mm
05:57 55.6 °F /  13.1 °C 47.1 °F /  8.4 °C 30.1 in /  1020.2 hPa Calm   3 mph /  4.8 km/h 73 % 0 in /  0.0 mm
06:02 55.4 °F /  13.0 °C 46.9 °F /  8.3 °C 30.1 in /  1020.2 hPa Calm   3 mph /  4.8 km/h 73 % 0 in /  0.0 mm
06:12 54.5 °F /  12.5 °C 46.4 °F /  8.0 °C 30.1 in /  1019.9 hPa Calm   1 mph /  1.6 km/h 74 % 0 in /  0.0 mm
06:17 54.3 °F /  12.4 °C 46.6 °F /  8.1 °C 30.1 in /  1019.9 hPa WNW 1 mph /  1.6 km/h 1 mph /  1.6 km/h 75 % 0 in /  0.0 mm
06:22 54 °F /  12.2 °C 46.6 °F /  8.1 °C 30.1 in /  1019.9 hPa WNW 2 mph /  3.2 km/h 2 mph /  3.2 km/h 76 % 0 in /  0.0 mm
06:27 53.8 °F /  12.1 °C 46.8 °F /  8.2 °C 30.1 in /  1019.9 hPa Calm   1 mph /  1.6 km/h 77 % 0 in /  0.0 mm
06:32 53.8 °F /  12.1 °C 46.8 °F /  8.2 °C 30.1 in /  1019.9 hPa WNW 1 mph /  1.6 km/h 2 mph /  3.2 km/h 77 % 0 in /  0.0 mm
06:37 53.4 °F /  11.9 °C 46.8 °F /  8.2 °C 30.1 in /  1019.9 hPa WNW 1 mph /  1.6 km/h 2 mph /  3.2 km/h 78 % 0 in /  0.0 mm
06:42 53.4 °F /  11.9 °C 46.4 °F /  8.0 °C 30.1 in /  1019.9 hPa WNW 1 mph /  1.6 km/h 2 mph /  3.2 km/h 77 % 0 in /  0.0 mm
06:47 53.4 °F /  11.9 °C 46.4 °F /  8.0 °C 30.1 in /  1019.9 hPa Calm   2 mph /  3.2 km/h 77 % 0 in /  0.0 mm
06:52 53.2 °F /  11.8 °C 46.6 °F /  8.1 °C 30.1 in /  1019.9 hPa WNW 1 mph /  1.6 km/h 3 mph /  4.8 km/h 78 % 0 in /  0.0 mm
07:02 54.1 °F /  12.3 °C 47.1 °F /  8.4 °C 30.1 in /  1019.9 hPa Calm   3 mph /  4.8 km/h 77 % 0 in /  0.0 mm
07:12 55.4 °F /  13.0 °C 47.3 °F /  8.5 °C 30.1 in /  1019.9 hPa Calm   3 mph /  4.8 km/h 74 % 0 in /  0.0 mm
07:17 55.6 °F /  13.1 °C 47.5 °F /  8.6 °C 30.1 in /  1019.9 hPa Calm   3 mph /  4.8 km/h 74 % 0 in /  0.0 mm
07:22 55.9 °F /  13.3 °C 47.1 °F /  8.4 °C 30.1 in /  1019.9 hPa Calm   3 mph /  4.8 km/h 72 % 0 in /  0.0 mm
07:27 55.9 °F /  13.3 °C 47.5 °F /  8.6 °C 30.1 in /  1019.9 hPa Calm   2 mph /  3.2 km/h 73 % 0 in /  0.0 mm
07:32 56.3 °F /  13.5 °C 47.8 °F /  8.8 °C 30.1 in /  1019.9 hPa Calm   2 mph /  3.2 km/h 73 % 0 in /  0.0 mm
07:42 57.7 °F /  14.3 °C 48.4 °F /  9.1 °C 30.1 in /  1019.9 hPa Calm   2 mph /  3.2 km/h 71 % 0 in /  0.0 mm
07:47 58.5 °F /  14.7 °C 49.1 °F /  9.5 °C 30.1 in /  1019.9 hPa Calm   2 mph /  3.2 km/h 71 % 0 in /  0.0 mm
07:52 58.8 °F /  14.9 °C 48.7 °F /  9.3 °C 30.1 in /  1019.9 hPa Calm   2 mph /  3.2 km/h 69 % 0 in /  0.0 mm
07:57 59.4 °F /  15.2 °C 49.1 °F /  9.5 °C 30.1 in /  1019.9 hPa North 2 mph /  3.2 km/h 2 mph /  3.2 km/h 69 % 0 in /  0.0 mm
08:02 59.7 °F /  15.4 °C 49.1 °F /  9.5 °C 30.1 in /  1019.9 hPa NNW 4 mph /  6.4 km/h 4 mph /  6.4 km/h 68 % 0 in /  0.0 mm
08:07 60.1 °F /  15.6 °C 49.1 °F /  9.5 °C 30.1 in /  1019.9 hPa North 3 mph /  4.8 km/h 4 mph /  6.4 km/h 67 % 0 in /  0.0 mm
08:12 60.3 °F /  15.7 °C 49.3 °F /  9.6 °C 30.1 in /  1019.9 hPa North 3 mph /  4.8 km/h 4 mph /  6.4 km/h 67 % 0 in /  0.0 mm
08:17 60.6 °F /  15.9 °C 49.3 °F /  9.6 °C 30.1 in /  1019.5 hPa North 2 mph /  3.2 km/h 4 mph /  6.4 km/h 66 % 0 in /  0.0 mm
08:22 61.2 °F /  16.2 °C 49.6 °F /  9.8 °C 30.1 in /  1019.9 hPa NE 3 mph /  4.8 km/h 5 mph /  8.0 km/h 66 % 0 in /  0.0 mm
08:32 62.1 °F /  16.7 °C 50.2 °F /  10.1 °C 30.1 in /  1019.5 hPa North 3 mph /  4.8 km/h 5 mph /  8.0 km/h 65 % 0 in /  0.0 mm
08:37 62.6 °F /  17.0 °C 50.2 °F /  10.1 °C 30.1 in /  1019.5 hPa North 4 mph /  6.4 km/h 5 mph /  8.0 km/h 64 % 0 in /  0.0 mm
08:42 63.1 °F /  17.3 °C 50.4 °F /  10.2 °C 30.1 in /  1019.5 hPa North 4 mph /  6.4 km/h 5 mph /  8.0 km/h 63 % 0 in /  0.0 mm
08:47 63.3 °F /  17.4 °C 49.3 °F /  9.6 °C 30.1 in /  1019.5 hPa NNE 2 mph /  3.2 km/h 6 mph /  9.7 km/h 60 % 0 in /  0.0 mm
08:52 64 °F /  17.8 °C 49.8 °F /  9.9 °C 30.1 in /  1019.5 hPa NNE 3 mph /  4.8 km/h 6 mph /  9.7 km/h 60 % 0 in /  0.0 mm
09:07 64.9 °F /  18.3 °C 49.3 °F /  9.6 °C 30.1 in /  1019.9 hPa NE 2 mph /  3.2 km/h 6 mph /  9.7 km/h 57 % 0 in /  0.0 mm
09:12 64.9 °F /  18.3 °C 49.3 °F /  9.6 °C 30.1 in /  1019.5 hPa NNW 2 mph /  3.2 km/h 6 mph /  9.7 km/h 57 % 0 in /  0.0 mm
09:17 65.1 °F /  18.4 °C 49.1 °F /  9.5 °C 30.1 in /  1019.5 hPa ENE 1 mph /  1.6 km/h 6 mph /  9.7 km/h 56 % 0 in /  0.0 mm
09:22 65.8 °F /  18.8 °C 49.6 °F /  9.8 °C 30.1 in /  1019.5 hPa Calm   6 mph /  9.7 km/h 56 % 0 in /  0.0 mm
09:27 65.8 °F /  18.8 °C 48.7 °F /  9.3 °C 30.1 in /  1019.5 hPa ENE 5 mph /  8.0 km/h 6 mph /  9.7 km/h 54 % 0 in /  0.0 mm
09:32 66 °F /  18.9 °C 49.5 °F /  9.7 °C 30.1 in /  1019.5 hPa NE 2 mph /  3.2 km/h 6 mph /  9.7 km/h 55 % 0 in /  0.0 mm
09:42 66.4 °F /  19.1 °C 48.7 °F /  9.3 °C 30.1 in /  1019.9 hPa ENE 4 mph /  6.4 km/h 6 mph /  9.7 km/h 53 % 0 in /  0.0 mm
09:47 66.4 °F /  19.1 °C 48.7 °F /  9.3 °C 30.1 in /  1019.9 hPa East 4 mph /  6.4 km/h 7 mph /  11.3 km/h 53 % 0 in /  0.0 mm
09:52 66.6 °F /  19.2 °C 49.5 °F /  9.7 °C 30.1 in /  1019.5 hPa NE 2 mph /  3.2 km/h 7 mph /  11.3 km/h 54 % 0 in /  0.0 mm
09:57 66.9 °F /  19.4 °C 49.3 °F /  9.6 °C 30.1 in /  1019.5 hPa ENE 3 mph /  4.8 km/h 5 mph /  8.0 km/h 53 % 0 in /  0.0 mm
10:02 66.9 °F /  19.4 °C 49.3 °F /  9.6 °C 30.1 in /  1019.5 hPa NE 3 mph /  4.8 km/h 5 mph /  8.0 km/h 53 % 0 in /  0.0 mm
10:07 67.3 °F /  19.6 °C 49.6 °F /  9.8 °C 30.1 in /  1019.5 hPa ENE 2 mph /  3.2 km/h 5 mph /  8.0 km/h 53 % 0 in /  0.0 mm
10:12 67.6 °F /  19.8 °C 49.8 °F /  9.9 °C 30.1 in /  1019.2 hPa Calm   6 mph /  9.7 km/h 53 % 0 in /  0.0 mm
10:17 68.4 °F /  20.2 °C 49.5 °F /  9.7 °C 30.1 in /  1019.2 hPa NE 4 mph /  6.4 km/h 6 mph /  9.7 km/h 51 % 0 in /  0.0 mm
10:22 68.2 °F /  20.1 °C 49.3 °F /  9.6 °C 30.1 in /  1019.2 hPa Calm   6 mph /  9.7 km/h 51 % 0 in /  0.0 mm
10:32 68.7 °F /  20.4 °C 49.8 °F /  9.9 °C 30.1 in /  1019.2 hPa Calm   5 mph /  8.0 km/h 51 % 0 in /  0.0 mm
10:42 69.6 °F /  20.9 °C 50.2 °F /  10.1 °C 30.1 in /  1019.2 hPa Calm   5 mph /  8.0 km/h 50 % 0 in /  0.0 mm
10:47 69.6 °F /  20.9 °C 50.7 °F /  10.4 °C 30.1 in /  1019.2 hPa NNE 2 mph /  3.2 km/h 6 mph /  9.7 km/h 51 % 0 in /  0.0 mm
10:52 70.2 °F /  21.2 °C 50.2 °F /  10.1 °C 30.1 in /  1019.2 hPa NNE 5 mph /  8.0 km/h 6 mph /  9.7 km/h 49 % 0 in /  0.0 mm
10:57 70 °F /  21.1 °C 50.5 °F /  10.3 °C 30.1 in /  1019.2 hPa NNE 1 mph /  1.6 km/h 6 mph /  9.7 km/h 50 % 0 in /  0.0 mm
11:02 70.9 °F /  21.6 °C 51.3 °F /  10.7 °C 30.1 in /  1018.8 hPa ENE 3 mph /  4.8 km/h 6 mph /  9.7 km/h 50 % 0 in /  0.0 mm
11:07 70.9 °F /  21.6 °C 50.7 °F /  10.4 °C 30.1 in /  1018.8 hPa East 3 mph /  4.8 km/h 6 mph /  9.7 km/h 49 % 0 in /  0.0 mm
11:12 70.9 °F /  21.6 °C 50.2 °F /  10.1 °C 30.1 in /  1018.8 hPa ENE 2 mph /  3.2 km/h 5 mph /  8.0 km/h 48 % 0 in /  0.0 mm
11:17 71.1 °F /  21.7 °C 50.4 °F /  10.2 °C 30.1 in /  1018.8 hPa ENE 3 mph /  4.8 km/h 5 mph /  8.0 km/h 48 % 0 in /  0.0 mm
11:22 71.1 °F /  21.7 °C 50.4 °F /  10.2 °C 30.1 in /  1018.8 hPa ENE 4 mph /  6.4 km/h 6 mph /  9.7 km/h 48 % 0 in /  0.0 mm
11:32 71.8 °F /  22.1 °C 50.5 °F /  10.3 °C 30.1 in /  1018.5 hPa ENE 2 mph /  3.2 km/h 8 mph /  12.9 km/h 47 % 0 in /  0.0 mm
11:37 72 °F /  22.2 °C 49.5 °F /  9.7 °C 30.1 in /  1018.5 hPa NE 3 mph /  4.8 km/h 8 mph /  12.9 km/h 45 % 0 in /  0.0 mm
11:42 72.1 °F /  22.3 °C 49.1 °F /  9.5 °C 30.1 in /  1018.5 hPa NNE 7 mph /  11.3 km/h 8 mph /  12.9 km/h 44 % 0 in /  0.0 mm
11:52 72.5 °F /  22.5 °C 49.3 °F /  9.6 °C 30.1 in /  1018.5 hPa East 3 mph /  4.8 km/h 9 mph /  14.5 km/h 44 % 0 in /  0.0 mm
11:57 72.5 °F /  22.5 °C 50.5 °F /  10.3 °C 30.1 in /  1018.5 hPa ENE 4 mph /  6.4 km/h 9 mph /  14.5 km/h 46 % 0 in /  0.0 mm
12:02 73 °F /  22.8 °C 51.1 °F /  10.6 °C 30.1 in /  1018.2 hPa ENE 4 mph /  6.4 km/h 9 mph /  14.5 km/h 46 % 0 in /  0.0 mm
12:07 72.9 °F /  22.7 °C 49.6 °F /  9.8 °C 30.1 in /  1018.2 hPa ENE 7 mph /  11.3 km/h 11 mph /  17.7 km/h 44 % 0 in /  0.0 mm
12:12 72.5 °F /  22.5 °C 48.7 °F /  9.3 °C 30.1 in /  1018.2 hPa NE 7 mph /  11.3 km/h 11 mph /  17.7 km/h 43 % 0 in /  0.0 mm
12:17 72.7 °F /  22.6 °C 49.5 °F /  9.7 °C 30.1 in /  1018.2 hPa SSE 2 mph /  3.2 km/h 11 mph /  17.7 km/h 44 % 0 in /  0.0 mm
12:22 73 °F /  22.8 °C 49.8 °F /  9.9 °C 30.1 in /  1018.2 hPa East 5 mph /  8.0 km/h 11 mph /  17.7 km/h 44 % 0 in /  0.0 mm
12:32 73.6 °F /  23.1 °C 50.4 °F /  10.2 °C 30.1 in /  1018.2 hPa ENE 2 mph /  3.2 km/h 9 mph /  14.5 km/h 44 % 0 in /  0.0 mm
12:37 73.8 °F /  23.2 °C 49.8 °F /  9.9 °C 30.1 in /  1018.2 hPa Calm   9 mph /  14.5 km/h 43 % 0 in /  0.0 mm
12:42 73.6 °F /  23.1 °C 50.4 °F /  10.2 °C 30.1 in /  1017.8 hPa ENE 2 mph /  3.2 km/h 8 mph /  12.9 km/h 44 % 0 in /  0.0 mm
12:47 73.9 °F /  23.3 °C 49.5 °F /  9.7 °C 30.1 in /  1017.8 hPa North 7 mph /  11.3 km/h 8 mph /  12.9 km/h 42 % 0 in /  0.0 mm
12:52 73.9 °F /  23.3 °C 49.5 °F /  9.7 °C 30.1 in /  1017.8 hPa ENE 4 mph /  6.4 km/h 8 mph /  12.9 km/h 42 % 0 in /  0.0 mm
12:57 74.5 °F /  23.6 °C 48.6 °F /  9.2 °C 30.1 in /  1017.8 hPa ENE 4 mph /  6.4 km/h 10 mph /  16.1 km/h 40 % 0 in /  0.0 mm
13:02 74.7 °F /  23.7 °C 48.7 °F /  9.3 °C 30.1 in /  1017.5 hPa East 1 mph /  1.6 km/h 10 mph /  16.1 km/h 40 % 0 in /  0.0 mm
13:12 75 °F /  23.9 °C 49.1 °F /  9.5 °C 30.1 in /  1017.5 hPa NE 3 mph /  4.8 km/h 12 mph /  19.3 km/h 40 % 0 in /  0.0 mm
13:17 74.8 °F /  23.8 °C 48.9 °F /  9.4 °C 30.1 in /  1017.5 hPa ESE 1 mph /  1.6 km/h 12 mph /  19.3 km/h 40 % 0 in /  0.0 mm
13:22 74.7 °F /  23.7 °C 49.5 °F /  9.7 °C 30 in /  1017.2 hPa NNE 4 mph /  6.4 km/h 12 mph /  19.3 km/h 41 % 0 in /  0.0 mm
13:27 75.4 °F /  24.1 °C 49.5 °F /  9.7 °C 30 in /  1017.2 hPa NE 3 mph /  4.8 km/h 12 mph /  19.3 km/h 40 % 0 in /  0.0 mm
13:32 75.6 °F /  24.2 °C 50.2 °F /  10.1 °C 30 in /  1017.2 hPa ENE 5 mph /  8.0 km/h 12 mph /  19.3 km/h 41 % 0 in /  0.0 mm
13:37 75.7 °F /  24.3 °C 51.1 °F /  10.6 °C 30 in /  1017.2 hPa ENE 3 mph /  4.8 km/h 12 mph /  19.3 km/h 42 % 0 in /  0.0 mm
13:42 75.7 °F /  24.3 °C 50.4 °F /  10.2 °C 30 in /  1016.8 hPa NE 4 mph /  6.4 km/h 12 mph /  19.3 km/h 41 % 0 in /  0.0 mm
13:47 75.9 °F /  24.4 °C 50.5 °F /  10.3 °C 30 in /  1016.8 hPa East 5 mph /  8.0 km/h 12 mph /  19.3 km/h 41 % 0 in /  0.0 mm
13:52 76.5 °F /  24.7 °C 50.4 °F /  10.2 °C 30 in /  1016.8 hPa North 6 mph /  9.7 km/h 12 mph /  19.3 km/h 40 % 0 in /  0.0 mm
13:57 76.3 °F /  24.6 °C 51.4 °F /  10.8 °C 30 in /  1016.5 hPa NE 3 mph /  4.8 km/h 12 mph /  19.3 km/h 42 % 0 in /  0.0 mm
14:02 76.5 °F /  24.7 °C 51.6 °F /  10.9 °C 30 in /  1016.5 hPa East 4 mph /  6.4 km/h 11 mph /  17.7 km/h 42 % 0 in /  0.0 mm
14:07 76.5 °F /  24.7 °C 50.4 °F /  10.2 °C 30 in /  1016.5 hPa Calm   14 mph /  22.5 km/h 40 % 0 in /  0.0 mm
14:12 76.3 °F /  24.6 °C 50.2 °F /  10.1 °C 30 in /  1016.5 hPa NE 4 mph /  6.4 km/h 14 mph /  22.5 km/h 40 % 0 in /  0.0 mm
14:17 77 °F /  25.0 °C 50.2 °F /  10.1 °C 30 in /  1016.5 hPa SE 4 mph /  6.4 km/h 14 mph /  22.5 km/h 39 % 0 in /  0.0 mm
14:22 77 °F /  25.0 °C 47.3 °F /  8.5 °C 30 in /  1016.5 hPa NE 4 mph /  6.4 km/h 11 mph /  17.7 km/h 35 % 0 in /  0.0 mm
14:27 76.8 °F /  24.9 °C 49.3 °F /  9.6 °C 30 in /  1016.5 hPa ESE 2 mph /  3.2 km/h 12 mph /  19.3 km/h 38 % 0 in /  0.0 mm
14:32 77.2 °F /  25.1 °C 49.6 °F /  9.8 °C 30 in /  1016.5 hPa ENE 6 mph /  9.7 km/h 12 mph /  19.3 km/h 38 % 0 in /  0.0 mm
14:37 77.2 °F /  25.1 °C 48.9 °F /  9.4 °C 30 in /  1016.1 hPa NE 6 mph /  9.7 km/h 11 mph /  17.7 km/h 37 % 0 in /  0.0 mm
14:42 76.8 °F /  24.9 °C 49.3 °F /  9.6 °C 30 in /  1016.1 hPa NE 1 mph /  1.6 km/h 9 mph /  14.5 km/h 38 % 0 in /  0.0 mm
14:47 77.2 °F /  25.1 °C 48.9 °F /  9.4 °C 30 in /  1016.1 hPa ESE 1 mph /  1.6 km/h 9 mph /  14.5 km/h 37 % 0 in /  0.0 mm
14:52 77.2 °F /  25.1 °C 49.6 °F /  9.8 °C 30 in /  1016.1 hPa NE 9 mph /  14.5 km/h 9 mph /  14.5 km/h 38 % 0 in /  0.0 mm
14:57 77.2 °F /  25.1 °C 48.9 °F /  9.4 °C 30 in /  1015.8 hPa NE 4 mph /  6.4 km/h 13 mph /  20.9 km/h 37 % 0 in /  0.0 mm
15:02 77.5 °F /  25.3 °C 49.3 °F /  9.6 °C 30 in /  1015.8 hPa NE 7 mph /  11.3 km/h 13 mph /  20.9 km/h 37 % 0 in /  0.0 mm
15:07 77.4 °F /  25.2 °C 49.8 °F /  9.9 °C 30 in /  1016.1 hPa East 5 mph /  8.0 km/h 13 mph /  20.9 km/h 38 % 0 in /  0.0 mm
15:12 77.5 °F /  25.3 °C 49.3 °F /  9.6 °C 30 in /  1015.8 hPa East 4 mph /  6.4 km/h 12 mph /  19.3 km/h 37 % 0 in /  0.0 mm
15:17 77.7 °F /  25.4 °C 50 °F /  10.0 °C 30 in /  1015.8 hPa ENE 5 mph /  8.0 km/h 12 mph /  19.3 km/h 38 % 0 in /  0.0 mm
15:22 78.3 °F /  25.7 °C 49.1 °F /  9.5 °C 30 in /  1015.8 hPa ENE 7 mph /  11.3 km/h 9 mph /  14.5 km/h 36 % 0 in /  0.0 mm
15:32 78.4 °F /  25.8 °C 50.7 °F /  10.4 °C 30 in /  1015.5 hPa NE 4 mph /  6.4 km/h 10 mph /  16.1 km/h 38 % 0 in /  0.0 mm
15:37 78.4 °F /  25.8 °C 48.6 °F /  9.2 °C 30 in /  1015.5 hPa ENE 6 mph /  9.7 km/h 13 mph /  20.9 km/h 35 % 0 in /  0.0 mm
15:42 78.4 °F /  25.8 °C 48.6 °F /  9.2 °C 30 in /  1015.5 hPa East 2 mph /  3.2 km/h 13 mph /  20.9 km/h 35 % 0 in /  0.0 mm
15:47 78.8 °F /  26.0 °C 49.6 °F /  9.8 °C 30 in /  1015.5 hPa ESE 5 mph /  8.0 km/h 13 mph /  20.9 km/h 36 % 0 in /  0.0 mm
15:52 78.6 °F /  25.9 °C 48.7 °F /  9.3 °C 30 in /  1015.5 hPa North 4 mph /  6.4 km/h 12 mph /  19.3 km/h 35 % 0 in /  0.0 mm
15:57 78.6 °F /  25.9 °C 47.8 °F /  8.8 °C 30 in /  1015.1 hPa ENE 4 mph /  6.4 km/h 12 mph /  19.3 km/h 34 % 0 in /  0.0 mm
16:02 79.3 °F /  26.3 °C 49.3 °F /  9.6 °C 30 in /  1015.1 hPa ESE 2 mph /  3.2 km/h 9 mph /  14.5 km/h 35 % 0 in /  0.0 mm
16:07 79.9 °F /  26.6 °C 48.2 °F /  9.0 °C 30 in /  1015.1 hPa East 1 mph /  1.6 km/h 9 mph /  14.5 km/h 33 % 0 in /  0.0 mm
16:12 80.1 °F /  26.7 °C 48.4 °F /  9.1 °C 30 in /  1015.1 hPa SSE 2 mph /  3.2 km/h 8 mph /  12.9 km/h 33 % 0 in /  0.0 mm
16:17 80.2 °F /  26.8 °C 50.2 °F /  10.1 °C 30 in /  1015.1 hPa Calm   7 mph /  11.3 km/h 35 % 0 in /  0.0 mm
16:22 80.8 °F /  27.1 °C 48.2 °F /  9.0 °C 30 in /  1015.1 hPa East 1 mph /  1.6 km/h 7 mph /  11.3 km/h 32 % 0 in /  0.0 mm
16:27 81 °F /  27.2 °C 49.1 °F /  9.5 °C 30 in /  1015.1 hPa ENE 3 mph /  4.8 km/h 5 mph /  8.0 km/h 33 % 0 in /  0.0 mm
16:32 81.1 °F /  27.3 °C 49.3 °F /  9.6 °C 30 in /  1014.8 hPa NE 5 mph /  8.0 km/h 6 mph /  9.7 km/h 33 % 0 in /  0.0 mm
16:37 80.6 °F /  27.0 °C 48 °F /  8.9 °C 30 in /  1015.1 hPa ENE 3 mph /  4.8 km/h 12 mph /  19.3 km/h 32 % 0 in /  0.0 mm
16:42 80.1 °F /  26.7 °C 49.1 °F /  9.5 °C 30 in /  1014.8 hPa ENE 5 mph /  8.0 km/h 13 mph /  20.9 km/h 34 % 0 in /  0.0 mm
16:47 80.4 °F /  26.9 °C 49.5 °F /  9.7 °C 30 in /  1014.8 hPa ESE 2 mph /  3.2 km/h 13 mph /  20.9 km/h 34 % 0 in /  0.0 mm
16:52 81.1 °F /  27.3 °C 50.2 °F /  10.1 °C 30 in /  1014.8 hPa NE 2 mph /  3.2 km/h 11 mph /  17.7 km/h 34 % 0 in /  0.0 mm
16:57 80.2 °F /  26.8 °C 49.3 °F /  9.6 °C 30 in /  1014.4 hPa NE 5 mph /  8.0 km/h 9 mph /  14.5 km/h 34 % 0 in /  0.0 mm
17:02 80.1 °F /  26.7 °C 49.1 °F /  9.5 °C 30 in /  1014.4 hPa ENE 5 mph /  8.0 km/h 7 mph /  11.3 km/h 34 % 0 in /  0.0 mm
17:07 80.6 °F /  27.0 °C 49.6 °F /  9.8 °C 30 in /  1014.4 hPa NE 4 mph /  6.4 km/h 7 mph /  11.3 km/h 34 % 0 in /  0.0 mm
17:12 80.4 °F /  26.9 °C 51.1 °F /  10.6 °C 30 in /  1014.4 hPa Calm   7 mph /  11.3 km/h 36 % 0 in /  0.0 mm
17:17 80.8 °F /  27.1 °C 50.5 °F /  10.3 °C 30 in /  1014.4 hPa NE 3 mph /  4.8 km/h 7 mph /  11.3 km/h 35 % 0 in /  0.0 mm
17:22 80.4 °F /  26.9 °C 50.2 °F /  10.1 °C 30 in /  1014.4 hPa ENE 6 mph /  9.7 km/h 6 mph /  9.7 km/h 35 % 0 in /  0.0 mm
17:27 80.8 °F /  27.1 °C 50.5 °F /  10.3 °C 30 in /  1014.4 hPa NE 8 mph /  12.9 km/h 9 mph /  14.5 km/h 35 % 0 in /  0.0 mm
17:32 80.2 °F /  26.8 °C 50.2 °F /  10.1 °C 30 in /  1014.4 hPa ENE 8 mph /  12.9 km/h 9 mph /  14.5 km/h 35 % 0 in /  0.0 mm
17:37 79.9 °F /  26.6 °C 49.8 °F /  9.9 °C 30 in /  1014.4 hPa ENE 3 mph /  4.8 km/h 11 mph /  17.7 km/h 35 % 0 in /  0.0 mm
17:42 79.9 °F /  26.6 °C 49.8 °F /  9.9 °C 30 in /  1014.4 hPa NE 3 mph /  4.8 km/h 11 mph /  17.7 km/h 35 % 0 in /  0.0 mm
17:52 79.9 °F /  26.6 °C 51.3 °F /  10.7 °C 29.9 in /  1014.1 hPa SSW 1 mph /  1.6 km/h 5 mph /  8.0 km/h 37 % 0 in /  0.0 mm
17:57 80.1 °F /  26.7 °C 50 °F /  10.0 °C 29.9 in /  1014.1 hPa ENE 1 mph /  1.6 km/h 5 mph /  8.0 km/h 35 % 0 in /  0.0 mm
18:02 80.6 °F /  27.0 °C 51.3 °F /  10.7 °C 29.9 in /  1014.1 hPa Calm   5 mph /  8.0 km/h 36 % 0 in /  0.0 mm
18:07 81.3 °F /  27.4 °C 51.1 °F /  10.6 °C 29.9 in /  1014.1 hPa East 3 mph /  4.8 km/h 5 mph /  8.0 km/h 35 % 0 in /  0.0 mm
18:12 81 °F /  27.2 °C 51.4 °F /  10.8 °C 29.9 in /  1013.8 hPa NNE 3 mph /  4.8 km/h 6 mph /  9.7 km/h 36 % 0 in /  0.0 mm
18:17 81 °F /  27.2 °C 50.7 °F /  10.4 °C 29.9 in /  1013.8 hPa NNE 2 mph /  3.2 km/h 9 mph /  14.5 km/h 35 % 0 in /  0.0 mm
18:22 80.8 °F /  27.1 °C 50.5 °F /  10.3 °C 29.9 in /  1013.8 hPa NNE 1 mph /  1.6 km/h 9 mph /  14.5 km/h 35 % 0 in /  0.0 mm
18:27 80.2 °F /  26.8 °C 50.9 °F /  10.5 °C 29.9 in /  1013.8 hPa NNW 3 mph /  4.8 km/h 9 mph /  14.5 km/h 36 % 0 in /  0.0 mm
18:32 80.1 °F /  26.7 °C 50.7 °F /  10.4 °C 29.9 in /  1013.8 hPa North 4 mph /  6.4 km/h 7 mph /  11.3 km/h 36 % 0 in /  0.0 mm
18:37 79.9 °F /  26.6 °C 51.3 °F /  10.7 °C 29.9 in /  1013.8 hPa NNE 8 mph /  12.9 km/h 8 mph /  12.9 km/h 37 % 0 in /  0.0 mm
18:42 79.3 °F /  26.3 °C 51.4 °F /  10.8 °C 29.9 in /  1013.8 hPa North 3 mph /  4.8 km/h 8 mph /  12.9 km/h 38 % 0 in /  0.0 mm
18:52 79 °F /  26.1 °C 51.3 °F /  10.7 °C 29.9 in /  1013.8 hPa East 2 mph /  3.2 km/h 8 mph /  12.9 km/h 38 % 0 in /  0.0 mm
18:57 79 °F /  26.1 °C 52 °F /  11.1 °C 29.9 in /  1013.8 hPa Calm   6 mph /  9.7 km/h 39 % 0 in /  0.0 mm
19:02 79 °F /  26.1 °C 52 °F /  11.1 °C 29.9 in /  1013.8 hPa ENE 1 mph /  1.6 km/h 6 mph /  9.7 km/h 39 % 0 in /  0.0 mm
19:07 79 °F /  26.1 °C 52 °F /  11.1 °C 29.9 in /  1013.8 hPa NE 3 mph /  4.8 km/h 5 mph /  8.0 km/h 39 % 0 in /  0.0 mm
19:12 78.6 °F /  25.9 °C 51.6 °F /  10.9 °C 29.9 in /  1013.8 hPa NE 3 mph /  4.8 km/h 5 mph /  8.0 km/h 39 % 0 in /  0.0 mm
19:17 78.4 °F /  25.8 °C 51.4 °F /  10.8 °C 29.9 in /  1013.8 hPa NE 1 mph /  1.6 km/h 4 mph /  6.4 km/h 39 % 0 in /  0.0 mm
19:22 78.4 °F /  25.8 °C 51.4 °F /  10.8 °C 29.9 in /  1013.8 hPa NE 1 mph /  1.6 km/h 4 mph /  6.4 km/h 39 % 0 in /  0.0 mm
19:27 78.3 °F /  25.7 °C 51.3 °F /  10.7 °C 29.9 in /  1013.8 hPa NE 3 mph /  4.8 km/h 4 mph /  6.4 km/h 39 % 0 in /  0.0 mm
19:32 78.1 °F /  25.6 °C 51.8 °F /  11.0 °C 29.9 in /  1013.4 hPa NE 4 mph /  6.4 km/h 5 mph /  8.0 km/h 40 % 0 in /  0.0 mm
19:37 77.9 °F /  25.5 °C 52.3 °F /  11.3 °C 29.9 in /  1013.4 hPa NE 5 mph /  8.0 km/h 5 mph /  8.0 km/h 41 % 0 in /  0.0 mm
19:42 77.5 °F /  25.3 °C 52.7 °F /  11.5 °C 29.9 in /  1013.4 hPa NE 3 mph /  4.8 km/h 6 mph /  9.7 km/h 42 % 0 in /  0.0 mm
19:52 77 °F /  25.0 °C 52.9 °F /  11.6 °C 29.9 in /  1013.4 hPa NE 5 mph /  8.0 km/h 6 mph /  9.7 km/h 43 % 0 in /  0.0 mm
19:57 76.6 °F /  24.8 °C 52.5 °F /  11.4 °C 29.9 in /  1013.8 hPa Calm   8 mph /  12.9 km/h 43 % 0 in /  0.0 mm
20:02 76.3 °F /  24.6 °C 53.4 °F /  11.9 °C 29.9 in /  1013.4 hPa NE 6 mph /  9.7 km/h 8 mph /  12.9 km/h 45 % 0 in /  0.0 mm
20:07 75.9 °F /  24.4 °C 52.5 °F /  11.4 °C 29.9 in /  1013.8 hPa NE 2 mph /  3.2 km/h 8 mph /  12.9 km/h 44 % 0 in /  0.0 mm
20:12 75.7 °F /  24.3 °C 52.3 °F /  11.3 °C 29.9 in /  1013.8 hPa Calm   7 mph /  11.3 km/h 44 % 0 in /  0.0 mm
20:22 75.6 °F /  24.2 °C 52.2 °F /  11.2 °C 29.9 in /  1013.8 hPa NE 4 mph /  6.4 km/h 5 mph /  8.0 km/h 44 % 0 in /  0.0 mm
20:27 74.8 °F /  23.8 °C 52.2 °F /  11.2 °C 29.9 in /  1013.4 hPa NE 4 mph /  6.4 km/h 6 mph /  9.7 km/h 45 % 0 in /  0.0 mm
20:32 74.5 °F /  23.6 °C 52.3 °F /  11.3 °C 29.9 in /  1013.4 hPa ENE 4 mph /  6.4 km/h 6 mph /  9.7 km/h 46 % 0 in /  0.0 mm
20:37 74.5 °F /  23.6 °C 52.3 °F /  11.3 °C 29.9 in /  1013.4 hPa NE 2 mph /  3.2 km/h 8 mph /  12.9 km/h 46 % 0 in /  0.0 mm
20:42 74.5 °F /  23.6 °C 52.3 °F /  11.3 °C 29.9 in /  1013.8 hPa North 4 mph /  6.4 km/h 8 mph /  12.9 km/h 46 % 0 in /  0.0 mm
20:47 74.3 °F /  23.5 °C 52.2 °F /  11.2 °C 29.9 in /  1013.8 hPa NNW 1 mph /  1.6 km/h 7 mph /  11.3 km/h 46 % 0 in /  0.0 mm
20:52 74.1 °F /  23.4 °C 52 °F /  11.1 °C 29.9 in /  1013.8 hPa ENE 3 mph /  4.8 km/h 6 mph /  9.7 km/h 46 % 0 in /  0.0 mm
20:57 73.9 °F /  23.3 °C 51.8 °F /  11.0 °C 29.9 in /  1014.1 hPa NNW 2 mph /  3.2 km/h 6 mph /  9.7 km/h 46 % 0 in /  0.0 mm
21:02 73.9 °F /  23.3 °C 51.8 °F /  11.0 °C 29.9 in /  1014.1 hPa NNW 2 mph /  3.2 km/h 5 mph /  8.0 km/h 46 % 0 in /  0.0 mm
21:07 73.9 °F /  23.3 °C 51.8 °F /  11.0 °C 29.9 in /  1014.1 hPa North 5 mph /  8.0 km/h 5 mph /  8.0 km/h 46 % 0 in /  0.0 mm
21:12 73.9 °F /  23.3 °C 51.8 °F /  11.0 °C 29.9 in /  1014.1 hPa NW 3 mph /  4.8 km/h 6 mph /  9.7 km/h 46 % 0 in /  0.0 mm
21:17 73.8 °F /  23.2 °C 52.3 °F /  11.3 °C 29.9 in /  1014.1 hPa NNE 2 mph /  3.2 km/h 6 mph /  9.7 km/h 47 % 0 in /  0.0 mm
21:22 73.4 °F /  23.0 °C 52.5 °F /  11.4 °C 29.9 in /  1013.8 hPa North 5 mph /  8.0 km/h 6 mph /  9.7 km/h 48 % 0 in /  0.0 mm
21:27 73.2 °F /  22.9 °C 52.3 °F /  11.3 °C 29.9 in /  1013.8 hPa North 3 mph /  4.8 km/h 8 mph /  12.9 km/h 48 % 0 in /  0.0 mm
21:32 73 °F /  22.8 °C 52.2 °F /  11.2 °C 29.9 in /  1014.1 hPa ENE 2 mph /  3.2 km/h 8 mph /  12.9 km/h 48 % 0 in /  0.0 mm
21:37 73 °F /  22.8 °C 52.2 °F /  11.2 °C 29.9 in /  1014.1 hPa NE 7 mph /  11.3 km/h 8 mph /  12.9 km/h 48 % 0 in /  0.0 mm
21:42 72.9 °F /  22.7 °C 52.5 °F /  11.4 °C 29.9 in /  1013.8 hPa North 7 mph /  11.3 km/h 10 mph /  16.1 km/h 49 % 0 in /  0.0 mm
21:47 72.7 °F /  22.6 °C 52.3 °F /  11.3 °C 29.9 in /  1013.8 hPa NE 8 mph /  12.9 km/h 10 mph /  16.1 km/h 49 % 0 in /  0.0 mm
21:52 72.5 °F /  22.5 °C 52.3 °F /  11.3 °C 29.9 in /  1013.8 hPa NE 5 mph /  8.0 km/h 10 mph /  16.1 km/h 49 % 0 in /  0.0 mm
21:57 72.1 °F /  22.3 °C 52.5 °F /  11.4 °C 29.9 in /  1013.1 hPa ENE 8 mph /  12.9 km/h 10 mph /  16.1 km/h 50 % 0 in /  0.0 mm
22:02 71.8 °F /  22.1 °C 54.7 °F /  12.6 °C 29.9 in /  1013.1 hPa ESE 6 mph /  9.7 km/h 13 mph /  20.9 km/h 55 % 0 in /  0.0 mm
22:07 70.9 °F /  21.6 °C 55.4 °F /  13.0 °C 29.9 in /  1013.4 hPa ENE 6 mph /  9.7 km/h 13 mph /  20.9 km/h 58 % 0 in /  0.0 mm
22:12 70.2 °F /  21.2 °C 55.6 °F /  13.1 °C 29.9 in /  1013.8 hPa ESE 1 mph /  1.6 km/h 13 mph /  20.9 km/h 60 % 0 in /  0.0 mm
22:17 69.8 °F /  21.0 °C 55.2 °F /  12.9 °C 29.9 in /  1013.8 hPa East 3 mph /  4.8 km/h 10 mph /  16.1 km/h 60 % 0 in /  0.0 mm
22:22 69.4 °F /  20.8 °C 55.9 °F /  13.3 °C 29.9 in /  1013.4 hPa East 1 mph /  1.6 km/h 7 mph /  11.3 km/h 62 % 0 in /  0.0 mm
22:27 69.4 °F /  20.8 °C 55.4 °F /  13.0 °C 29.9 in /  1013.8 hPa Calm   7 mph /  11.3 km/h 61 % 0 in /  0.0 mm
22:37 68.5 °F /  20.3 °C 56.7 °F /  13.7 °C 29.9 in /  1013.1 hPa East 3 mph /  4.8 km/h 7 mph /  11.3 km/h 66 % 0 in /  0.0 mm
22:42 68.2 °F /  20.1 °C 57.2 °F /  14.0 °C 29.9 in /  1013.1 hPa ENE 3 mph /  4.8 km/h 5 mph /  8.0 km/h 68 % 0 in /  0.0 mm
22:47 68 °F /  20.0 °C 57 °F /  13.9 °C 29.9 in /  1012.8 hPa NE 2 mph /  3.2 km/h 4 mph /  6.4 km/h 68 % 0 in /  0.0 mm
22:52 67.6 °F /  19.8 °C 57 °F /  13.9 °C 29.9 in /  1012.8 hPa NNE 2 mph /  3.2 km/h 5 mph /  8.0 km/h 69 % 0 in /  0.0 mm
22:57 67.6 °F /  19.8 °C 57 °F /  13.9 °C 29.9 in /  1012.8 hPa NNE 3 mph /  4.8 km/h 5 mph /  8.0 km/h 69 % 0 in /  0.0 mm
23:02 67.6 °F /  19.8 °C 57.6 °F /  14.2 °C 29.9 in /  1012.8 hPa Calm   5 mph /  8.0 km/h 70 % 0 in /  0.0 mm
23:07 67.5 °F /  19.7 °C 57 °F /  13.9 °C 29.9 in /  1012.8 hPa NE 1 mph /  1.6 km/h 4 mph /  6.4 km/h 69 % 0 in /  0.0 mm
23:12 67.5 °F /  19.7 °C 57.4 °F /  14.1 °C 29.9 in /  1012.8 hPa Calm   4 mph /  6.4 km/h 70 % 0 in /  0.0 mm
23:17 67.3 °F /  19.6 °C 57.2 °F /  14.0 °C 29.9 in /  1012.8 hPa Calm   2 mph /  3.2 km/h 70 % 0 in /  0.0 mm
23:22 67.1 °F /  19.5 °C 57.4 °F /  14.1 °C 29.9 in /  1012.8 hPa Calm   1 mph /  1.6 km/h 71 % 0 in /  0.0 mm
23:27 66.9 °F /  19.4 °C 57.6 °F /  14.2 °C 29.9 in /  1012.8 hPa Calm   1 mph /  1.6 km/h 72 % 0 in /  0.0 mm
23:32 66.6 °F /  19.2 °C 58.1 °F /  14.5 °C 29.9 in /  1012.4 hPa Calm   1 mph /  1.6 km/h 74 % 0 in /  0.0 mm
23:37 66.2 °F /  19.0 °C 58.1 °F /  14.5 °C 29.9 in /  1012.8 hPa Calm     75 % 0 in /  0.0 mm
23:42 66 °F /  18.9 °C 58.3 °F /  14.6 °C 29.9 in /  1012.4 hPa Calm     76 % 0 in /  0.0 mm
23:52 65.3 °F /  18.5 °C 58.3 °F /  14.6 °C 29.9 in /  1012.4 hPa Calm   1 mph /  1.6 km/h 78 % 0 in /  0.0 mm
23:57 64.9 °F /  18.3 °C 57.6 °F /  14.2 °C 29.9 in /  1012.4 hPa WNW 2 mph /  3.2 km/h 2 mph /  3.2 km/h 77 % 0 in /  0.0 mm
Meteo18
Compliments of Weather Underground - 4 mb

Script developed by  Jim McMurry - jmcmurry@mwt.net Adapted for the template by  Wim van der Kuil - Leuven-Template.eu

You find our weather info also at:

European Weather Network

Weather Underground

Equipment we use:

Weather-station
Davis Vue

Weather-program
Meteohub

Weather-server
Raspberry PI 2 B+

Provider
1 and 1

Davis Vue

Meteohub

Raspberry PI 2 B+

1 and 1